Fort Worth Nas Jrb/Carswell field
KNFW : now visible

Airfield :











YOU CAN JOIN US ON...

 
LOGIN :

Register | Disclaimer

   EN    FR    IT 

 









Legend :    VFR   Marginal VFR   IFR   Intensive IFR   Very Intensive IFR
Visi :
Ceiling :
>= 8 km
>= 3000ft
5 to 8 km
1000 to 3000 ft
1500m to 5 km
500 to 1000 ft
800 to 1500m
200 to 500 ft
< 800m
< 200 ft
Symbols :   Thunderstorms  Fog  Heavy snow  Heavy precipitations  Wind > 20 kt







- Airport Elevation : 650 ft


KNFW - Fort Worth Nas Jrb/Carswell field

CURRENT METAR :
  • 162052Z 29012G19KT 8SM -TSRA SCT070CB OVC095 19/17 A2987 RMK AO2 PK WND 27055/1959 WSHFT 1949 RAB01 TSB05 SLP100 FRQ LTGICCCCG OHD TS OHD MOV E P0030 60030 T01940167 53009 VISNO N $

EXPIRED METARs :
  • 162025Z COR 28016G20KT 3SM TSRA SCT039CB BKN065 OVC095 19/17 A2988 RMK AO2 PK WND 27055/1959 WSHFT 1949 RAB01 TSB05 FRQ LTGICCCCG OHD TS OHD MOV E P0025 T01940167 VISNO N $
  • 162012Z 30019G50KT 3/4SM +TSRA SCT039CB BKN046 OVC060 20/17 A2986 RMK AO2 PK WND 27055/1959 WSHFT 1949 RAB01 TSB05 FRQ LTGICCCCG OHD TS OHD MOV E P0015 T02000167 VISNO N $
  • 162009Z 30030G53KT 1 1/2SM -TSRA SCT039CB BKN046 OVC060 22/16 A2987 RMK AO2 PK WND 27055/1959 WSHFT 1949 RAB01 TSB05 PRESRR FRQ LTGICCCCG OHD TS OHD MOV E P0009 T02170161 VISNO N $
  • 161952Z 20020G23KT 10SM BKN039 BKN046 OVC055 32/22 A2978 RMK AO2 TSB26B31E46 SLP068 T03220217 VISNO N $
  • 161932Z 18009KT 10SM TS OVC035 31/22 A2978 RMK AO2 TSB26B31 T03110222 VISNO N $
  • 161900Z 16008G19KT 10SM BKN032 BKN041 OVC049 31/22 A2981 RMK AO2 CIG 026 N T03060222 VISNO N $
  • 161852Z 16009KT 10SM BKN029 OVC039 31/22 A2982 RMK AO2 SLP083 T03060222 VISNO N $

TAF AMD TAF KNFW
Valid from the 16 at 20:00 until the 17 at 15:00 UTC


1620/1715 18015G24KT 9999 VCTS BKN032CB BKN041 QNH2970INS
TEMPO 1620/1623 VRB35G50KT 1200 +TSRAGR SCT030CB BKN040 OVC050
BECMG 1623/1700 18010KT 9999 NSW OVC017 QNH2973INS
BECMG 1714/1715 18010KT 9999 VCTS OVC017CB QNH2985INS AUTOMATED SENSOR METWATCH 1622 TIL 1711 T34/1621Z T24/1712Z AMD 2019 FN00204
KZFW FIR / North America



MET'MAP, your aeronautical weather chart ! - Copyright ORBIFLY December 2007 - Disclaimer

ORBIFLY MET'MAP TEAM :

Programming & Development : Alexandra Zaïnal
Concept & Development : Baudouin d'Aumeries
Co-Development & Prog : Marc-Olivier Méhu
Technical & hardware support : Manuel Goepfert

Contact : metmap@orbifly.com




SOURCES & CREDITS :

   NOAA       Earth
Advisory